createdAt,value
2018-04-27T00:00:43.725Z,90.30
2018-04-27T00:03:10.029Z,90.40
2018-04-27T00:05:36.389Z,90.30
2018-04-27T00:08:02.748Z,90.30
2018-04-27T00:10:29.202Z,90.40
2018-04-27T00:12:55.589Z,90.30
2018-04-27T00:15:22.301Z,90.40
2018-04-27T00:17:48.763Z,90.50
2018-04-27T00:20:15.095Z,90.50
2018-04-27T00:22:41.762Z,90.60
2018-04-27T00:25:08.718Z,90.50
2018-04-27T00:27:35.228Z,90.60
2018-04-27T00:30:05.022Z,90.60
2018-04-27T00:32:32.070Z,90.70
2018-04-27T00:34:59.175Z,90.80
2018-04-27T00:37:25.515Z,90.70
2018-04-27T00:39:51.850Z,90.80
2018-04-27T00:42:18.105Z,90.60
2018-04-27T00:44:45.153Z,90.50
2018-04-27T00:47:12.128Z,90.20
2018-04-27T00:49:38.379Z,90.20
2018-04-27T00:52:04.567Z,90.20
2018-04-27T00:54:31.494Z,90.40
2018-04-27T00:56:57.687Z,90.40
2018-04-27T00:59:23.871Z,90.40
2018-04-27T01:01:50.958Z,90.50
2018-04-27T01:04:17.261Z,90.50
2018-04-27T01:06:43.518Z,90.40
2018-04-27T01:09:09.787Z,90.40
2018-04-27T01:11:36.055Z,90.50
2018-04-27T01:14:02.340Z,90.20
2018-04-27T01:16:28.616Z,90.40
2018-04-27T01:18:54.844Z,90.30
2018-04-27T01:21:21.114Z,90.40
2018-04-27T01:23:47.410Z,90.70
2018-04-27T01:26:13.606Z,90.80
2018-04-27T01:28:40.619Z,90.90
2018-04-27T01:31:06.816Z,90.90
2018-04-27T01:33:33.059Z,91.10
2018-04-27T01:35:59.384Z,90.90
2018-04-27T01:38:26.103Z,90.90
2018-04-27T01:40:53.155Z,91.10
2018-04-27T01:43:19.445Z,91.00
2018-04-27T01:45:45.696Z,91.00
2018-04-27T01:48:12.661Z,91.30
2018-04-27T01:50:38.919Z,91.20
2018-04-27T01:53:05.116Z,91.30
2018-04-27T01:55:32.048Z,91.20
2018-04-27T01:57:58.367Z,91.20
2018-04-27T02:00:24.614Z,91.20
2018-04-27T02:02:51.678Z,91.40
2018-04-27T02:05:17.904Z,91.40
2018-04-27T02:07:44.804Z,91.30
2018-04-27T02:10:10.995Z,91.30
2018-04-27T02:12:37.246Z,91.10
2018-04-27T02:15:03.476Z,91.10
2018-04-27T02:17:29.624Z,91.20
2018-04-27T02:19:55.905Z,91.10
2018-04-27T02:22:22.064Z,91.00
2018-04-27T02:24:48.189Z,91.00
2018-04-27T02:27:14.311Z,91.00
2018-04-27T02:29:40.445Z,91.00
2018-04-27T02:32:06.562Z,91.10
2018-04-27T02:34:32.675Z,91.00
2018-04-27T02:36:58.817Z,90.90
2018-04-27T02:39:24.947Z,90.70
2018-04-27T02:41:51.104Z,90.70
2018-04-27T02:44:17.287Z,90.60
2018-04-27T02:46:43.460Z,90.40
2018-04-27T02:49:09.579Z,90.20
2018-04-27T02:51:35.705Z,90.20
2018-04-27T02:54:01.851Z,90.50
2018-04-27T02:56:28.803Z,90.50
2018-04-27T02:58:55.707Z,90.30
2018-04-27T03:01:22.006Z,90.20
2018-04-27T03:03:48.904Z,90.20
2018-04-27T04:40:54.222Z,90.90
2018-04-27T04:43:21.082Z,91.00
2018-04-27T04:45:47.241Z,90.90
2018-04-27T04:48:13.416Z,90.90
2018-04-27T04:50:39.601Z,90.80
2018-04-27T04:53:05.774Z,90.70
2018-04-27T04:55:31.946Z,90.60
2018-04-27T04:57:58.185Z,90.50
2018-04-27T05:00:24.629Z,90.60
2018-04-27T05:02:50.966Z,90.50
2018-04-27T05:05:17.800Z,90.70
2018-04-27T05:07:44.008Z,90.70
2018-04-27T05:10:10.194Z,90.60
2018-04-27T05:12:36.362Z,90.70
2018-04-27T05:15:02.683Z,90.70
2018-04-27T05:17:29.142Z,90.70
2018-04-27T05:19:55.096Z,90.70
2018-04-27T05:22:21.324Z,90.30
2018-04-27T05:24:47.564Z,90.00
2018-04-27T05:27:14.488Z,89.30
2018-04-27T05:29:41.168Z,89.30
2018-04-27T05:32:07.464Z,89.20
2018-04-27T05:34:34.074Z,88.50
2018-04-27T05:37:00.274Z,87.70
2018-04-27T05:39:26.507Z,87.40
2018-04-27T05:41:52.747Z,87.50
2018-04-27T05:44:18.963Z,87.00
2018-04-27T05:46:45.205Z,86.40
2018-04-27T05:49:11.358Z,86.70
2018-04-27T05:51:37.577Z,86.30
2018-04-27T05:54:03.779Z,85.90
2018-04-27T05:56:30.119Z,85.60
2018-04-27T05:58:56.343Z,85.10
2018-04-27T06:01:22.820Z,85.10
2018-04-27T06:04:01.234Z,84.60
2018-04-27T06:06:27.551Z,84.40
2018-04-27T06:08:53.845Z,84.30
2018-04-27T06:11:20.073Z,84.50
2018-04-27T06:13:46.622Z,83.50
2018-04-27T06:16:12.858Z,83.40
2018-04-27T06:18:38.984Z,83.30
2018-04-27T06:21:05.898Z,83.20
2018-04-27T06:23:32.644Z,82.20
2018-04-27T06:25:59.826Z,82.10
2018-04-27T06:28:26.058Z,81.80
2018-04-27T06:30:52.787Z,81.00
2018-04-27T06:33:19.395Z,81.20
2018-04-27T06:35:46.685Z,80.50
2018-04-27T06:38:13.085Z,80.50
2018-04-27T06:40:39.285Z,80.50
2018-04-27T06:43:06.259Z,78.20
2018-04-27T06:45:32.511Z,78.10
2018-04-27T07:00:10.292Z,74.80
2018-04-27T07:02:36.559Z,73.80
2018-04-27T07:05:02.884Z,71.20
2018-04-27T07:07:29.413Z,71.10
2018-04-27T07:09:55.746Z,70.90
2018-04-27T07:12:22.062Z,70.00
2018-04-27T07:14:49.110Z,68.90
2018-04-27T07:17:15.299Z,68.90
2018-04-27T07:19:42.225Z,68.00
2018-04-27T07:22:08.832Z,67.90
2018-04-27T07:24:35.492Z,67.50
2018-04-27T07:27:02.146Z,67.30
2018-04-27T07:29:28.413Z,68.00
2018-04-27T07:31:54.903Z,66.70
2018-04-27T07:34:21.209Z,66.50
2018-04-27T07:36:47.440Z,65.20
2018-04-27T07:39:13.806Z,65.70
2018-04-27T07:41:40.936Z,65.30
2018-04-27T07:44:07.178Z,65.10
2018-04-27T07:46:33.965Z,66.30
2018-04-27T07:49:01.575Z,65.90
2018-04-27T07:51:27.768Z,64.90
2018-04-27T07:53:53.950Z,65.30
2018-04-27T07:56:20.876Z,64.80
2018-04-27T07:58:47.689Z,64.80
2018-04-27T08:01:14.298Z,63.70
2018-04-27T08:03:41.595Z,63.30
2018-04-27T08:06:08.709Z,62.10
2018-04-27T08:08:35.130Z,62.00
2018-04-27T08:11:01.291Z,62.00
2018-04-27T08:13:27.946Z,61.40
2018-04-27T08:15:54.442Z,61.50
2018-04-27T08:18:22.637Z,60.00
2018-04-27T08:20:49.503Z,58.90
2018-04-27T08:23:16.476Z,59.00
2018-04-27T08:25:42.784Z,60.00
2018-04-27T08:28:09.293Z,58.90
2018-04-27T08:30:36.136Z,57.90
2018-04-27T08:33:03.235Z,57.70
2018-04-27T08:35:30.153Z,58.00
2018-04-27T08:37:56.721Z,57.00
2018-04-27T08:40:23.714Z,55.90
2018-04-27T08:42:50.157Z,55.80
2018-04-27T08:45:17.219Z,55.80
2018-04-27T08:47:43.525Z,55.80
2018-04-27T08:50:09.779Z,53.30
2018-04-27T08:52:35.992Z,53.40
2018-04-27T08:55:02.312Z,54.50
2018-04-27T08:57:28.676Z,53.90
2018-04-27T08:59:55.331Z,53.10
2018-04-27T09:02:21.731Z,52.90
2018-04-27T09:04:48.200Z,52.30
2018-04-27T09:07:14.791Z,52.00
2018-04-27T09:09:41.358Z,51.30
2018-04-27T09:12:09.325Z,50.20
2018-04-27T09:14:35.644Z,50.30
2018-04-27T09:17:02.105Z,50.40
2018-04-27T09:19:28.609Z,50.20
2018-04-27T09:21:54.809Z,49.60
2018-04-27T09:24:21.133Z,48.80
2018-04-27T09:26:47.447Z,48.40
2018-04-27T09:29:13.665Z,50.00
2018-04-27T09:31:40.645Z,49.00
2018-04-27T09:34:07.886Z,49.00
2018-04-27T09:36:34.110Z,49.60
2018-04-27T09:39:00.285Z,49.10
2018-04-27T09:41:26.551Z,47.10
2018-04-27T09:43:53.041Z,45.00
2018-04-27T09:46:19.297Z,45.80
2018-04-27T09:48:45.735Z,44.90
2018-04-27T09:51:11.998Z,43.60
2018-04-27T09:53:38.171Z,43.10
2018-04-27T09:56:04.678Z,44.30
2018-04-27T09:58:30.895Z,43.20
2018-04-27T10:00:57.109Z,43.00
2018-04-27T10:03:23.308Z,42.20
2018-04-27T10:05:49.688Z,40.40
2018-04-27T10:08:15.972Z,39.10
2018-04-27T10:10:43.393Z,39.30
2018-04-27T10:13:09.585Z,40.40
2018-04-27T10:15:36.534Z,40.30
2018-04-27T10:18:03.426Z,39.50
2018-04-27T10:20:29.640Z,39.50
2018-04-27T10:22:55.876Z,39.00
2018-04-27T10:25:22.095Z,39.10
2018-04-27T10:27:48.374Z,38.40
2018-04-27T10:30:15.290Z,39.40
2018-04-27T10:32:41.558Z,39.50
2018-04-27T10:35:07.748Z,38.00
2018-04-27T10:37:34.178Z,37.70
2018-04-27T10:40:03.674Z,39.00
2018-04-27T10:42:30.381Z,38.50
2018-04-27T10:44:56.543Z,38.60
2018-04-27T10:47:22.716Z,39.40
2018-04-27T10:49:48.920Z,39.50
2018-04-27T10:52:18.139Z,38.30
2018-04-27T10:54:44.574Z,38.50
2018-04-27T10:57:12.379Z,38.60
2018-04-27T10:59:39.333Z,38.20
2018-04-27T11:02:07.102Z,38.00
2018-04-27T11:04:35.218Z,38.70
2018-04-27T11:07:01.630Z,38.70
2018-04-27T11:09:27.820Z,38.60
2018-04-27T11:11:54.171Z,39.40
2018-04-27T11:14:20.453Z,39.60
2018-04-27T11:16:47.424Z,39.20
2018-04-27T11:19:14.588Z,39.20
2018-04-27T11:21:40.839Z,38.60
2018-04-27T11:24:07.075Z,38.50
2018-04-27T11:26:34.091Z,38.30
2018-04-27T11:29:00.279Z,38.30
2018-04-27T11:31:27.255Z,37.60
2018-04-27T11:33:53.390Z,37.00
2018-04-27T11:36:19.530Z,35.60
2018-04-27T11:38:45.712Z,35.30
2018-04-27T11:41:12.703Z,37.10
2018-04-27T11:43:38.837Z,37.10
2018-04-27T11:46:05.338Z,36.50
2018-04-27T11:48:31.659Z,34.80
2018-04-27T11:50:58.569Z,34.00
2018-04-27T11:53:24.737Z,34.00
2018-04-27T11:55:51.710Z,33.20
2018-04-27T11:58:17.994Z,33.20
2018-04-27T12:00:44.941Z,31.70
2018-04-27T12:03:11.884Z,31.70
2018-04-27T12:05:38.216Z,31.70
2018-04-27T12:08:05.138Z,32.00
2018-04-27T12:10:31.255Z,32.00
2018-04-27T12:12:57.385Z,31.70
2018-04-27T12:15:24.502Z,32.10
2018-04-27T12:17:57.652Z,32.80
2018-04-27T12:20:23.863Z,34.70
2018-04-27T12:22:50.052Z,34.60
2018-04-27T12:25:17.644Z,35.50
2018-04-27T12:27:43.903Z,35.90
2018-04-27T12:30:10.058Z,36.20
2018-04-27T12:32:36.321Z,35.10
2018-04-27T12:35:02.639Z,35.40
2018-04-27T12:37:28.826Z,35.70
2018-04-27T12:39:56.038Z,35.90
2018-04-27T12:42:22.251Z,35.30
2018-04-27T12:44:48.680Z,35.60
2018-04-27T12:47:16.662Z,35.20
2018-04-27T12:49:42.928Z,36.20
2018-04-27T12:52:09.141Z,35.80
2018-04-27T12:54:35.246Z,36.60
2018-04-27T12:57:01.780Z,37.10
2018-04-27T12:59:29.009Z,35.90
2018-04-27T13:01:55.232Z,35.30
2018-04-27T13:04:22.467Z,35.30
2018-04-27T13:06:49.704Z,35.60
2018-04-27T13:09:17.487Z,35.90
2018-04-27T13:11:45.045Z,35.90
2018-04-27T13:14:12.332Z,34.60
2018-04-27T13:16:39.596Z,36.10
2018-04-27T14:26:08.143Z,29.80
2018-04-27T14:28:35.025Z,28.80
2018-04-27T14:31:05.589Z,28.80
2018-04-27T14:33:35.529Z,28.20
2018-04-27T14:36:02.093Z,27.30
2018-04-27T14:38:28.981Z,27.40
2018-04-27T14:40:56.860Z,28.30
2018-04-27T14:43:25.217Z,27.40
2018-04-27T14:45:53.846Z,27.40
2018-04-27T14:48:21.355Z,27.40
2018-04-27T14:50:48.915Z,27.80
2018-04-27T14:53:15.705Z,28.40
2018-04-27T14:55:42.496Z,28.50
2018-04-27T14:58:09.710Z,28.20
2018-04-27T15:00:36.666Z,28.10
2018-04-27T15:03:03.979Z,28.20
2018-04-27T15:05:30.941Z,28.50
2018-04-27T15:07:58.162Z,28.60
2018-04-27T15:10:25.509Z,28.10
2018-04-27T15:12:52.074Z,28.50
2018-04-27T15:15:18.783Z,28.20
2018-04-27T15:17:46.778Z,28.10
2018-04-27T15:20:13.085Z,28.10
2018-04-27T15:22:40.331Z,28.40
2018-04-27T15:25:06.474Z,28.10
2018-04-27T15:27:33.357Z,28.30
2018-04-27T15:29:59.667Z,28.20
2018-04-27T15:32:25.828Z,28.30
2018-04-27T15:34:52.074Z,28.30
2018-04-27T15:37:18.458Z,29.10
2018-04-27T15:39:44.780Z,28.50
2018-04-27T15:42:11.040Z,27.90
2018-04-27T15:44:37.229Z,26.60
2018-04-27T15:47:03.528Z,25.60
2018-04-27T15:49:30.478Z,24.40
2018-04-27T15:51:56.705Z,24.10
2018-04-27T15:54:22.768Z,24.00
2018-04-27T15:56:48.917Z,24.20
2018-04-27T15:59:15.085Z,23.40
2018-04-27T16:01:41.234Z,23.50
2018-04-27T16:04:09.218Z,23.80
2018-04-27T16:06:36.124Z,23.30
2018-04-27T16:09:02.279Z,23.20
2018-04-27T16:11:29.158Z,23.00
2018-04-27T16:13:57.509Z,23.00
2018-04-27T16:16:25.621Z,22.60
2018-04-27T16:18:51.768Z,23.20
2018-04-27T16:21:17.934Z,23.20
2018-04-27T16:23:44.972Z,23.70
2018-04-27T16:26:12.268Z,23.50
2018-04-27T16:28:38.527Z,23.40
2018-04-27T16:31:05.228Z,23.20
2018-04-27T16:33:31.867Z,23.20
2018-04-27T16:35:58.846Z,23.80
2018-04-27T16:38:25.040Z,23.60
2018-04-27T16:40:52.190Z,25.60
2018-04-27T16:43:18.747Z,27.30
2018-04-27T16:45:46.600Z,28.90
2018-04-27T16:48:13.259Z,29.00
2018-04-27T16:50:40.048Z,29.50
2018-04-27T16:53:06.378Z,29.60
2018-04-27T16:55:33.919Z,29.40
2018-04-27T16:58:01.336Z,29.60
2018-04-27T17:00:28.386Z,29.80
2018-04-27T17:02:54.655Z,28.50
2018-04-27T17:05:21.629Z,28.40
2018-04-27T17:07:47.847Z,28.40
2018-04-27T17:10:14.788Z,29.10
2018-04-27T17:12:43.130Z,29.90
2018-04-27T17:15:11.995Z,30.40
2018-04-27T17:17:38.643Z,31.60
2018-04-27T17:20:05.138Z,32.00
2018-04-27T17:22:33.673Z,32.40
2018-04-27T17:25:00.219Z,33.30
2018-04-27T17:27:28.305Z,33.40
2018-04-27T17:29:55.560Z,33.50
2018-04-27T17:32:24.190Z,34.10
2018-04-27T17:34:50.772Z,34.10
2018-04-27T17:37:17.229Z,34.10
2018-04-27T17:39:43.783Z,33.90
2018-04-27T17:42:11.717Z,34.30
2018-04-27T17:44:38.085Z,33.70
2018-04-27T17:47:05.185Z,35.00
2018-04-27T17:49:31.348Z,34.90
2018-04-27T17:51:58.553Z,35.30
2018-04-27T17:54:24.744Z,35.70
2018-04-27T17:56:50.889Z,35.50
2018-04-27T17:59:17.335Z,34.80
2018-04-27T18:01:43.647Z,35.00
2018-04-27T18:04:10.152Z,35.50
2018-04-27T18:06:37.180Z,36.00
2018-04-27T18:09:04.110Z,36.90
2018-04-27T18:11:30.356Z,36.30
2018-04-27T18:13:57.205Z,37.20
2018-04-27T18:16:24.486Z,37.10
2018-04-27T18:18:51.630Z,37.80
2018-04-27T18:21:18.523Z,38.00
2018-04-27T18:23:44.674Z,38.00
2018-04-27T18:26:11.380Z,38.40
2018-04-27T18:28:37.637Z,38.70
2018-04-27T18:31:04.357Z,39.60
2018-04-27T18:33:31.387Z,40.20
2018-04-27T18:35:59.005Z,40.20
2018-04-27T18:38:26.493Z,40.70
2018-04-27T18:40:52.937Z,41.40
2018-04-27T18:43:19.834Z,42.20
2018-04-27T18:45:47.679Z,42.30
2018-04-27T18:50:50.925Z,42.50
2018-04-27T18:53:17.595Z,43.20
2018-04-27T18:55:44.420Z,43.20
2018-04-27T18:58:13.817Z,42.80
2018-04-27T19:00:40.763Z,44.10
2018-04-27T19:03:07.319Z,44.10
2018-04-27T19:05:33.519Z,44.70
2018-04-27T19:08:04.962Z,45.10
2018-04-27T19:10:32.311Z,45.50
2018-04-27T19:12:58.509Z,46.00
2018-04-27T19:15:25.281Z,46.60
2018-04-27T19:18:01.040Z,46.90
2018-04-27T19:20:27.646Z,47.10
2018-04-27T19:22:53.863Z,46.90
2018-04-27T19:25:20.826Z,46.80
2018-04-27T19:27:46.991Z,47.80
2018-04-27T19:30:15.130Z,48.10
2018-04-27T19:32:41.360Z,47.90
2018-04-27T19:35:07.570Z,48.60
2018-04-27T19:37:33.809Z,48.20
2018-04-27T19:40:00.000Z,48.10
2018-04-27T19:42:26.192Z,48.00
2018-04-27T19:44:52.441Z,48.20
2018-04-27T19:47:20.776Z,48.80
2018-04-27T19:49:51.063Z,48.30
2018-04-27T19:52:18.247Z,48.30
2018-04-27T19:54:46.528Z,48.60
2018-04-27T19:57:16.112Z,48.60
2018-04-27T19:59:44.985Z,49.00
2018-04-27T20:02:23.597Z,49.30
2018-04-27T20:05:07.661Z,49.30
2018-04-27T20:07:46.859Z,49.70
2018-04-27T20:10:23.608Z,49.90
2018-04-27T20:12:50.755Z,49.50
2018-04-27T20:15:19.100Z,49.50
2018-04-27T20:17:49.188Z,49.60
2018-04-27T20:20:18.267Z,49.90
2018-04-27T20:22:47.893Z,50.90
2018-04-27T20:25:14.134Z,50.30
2018-04-27T20:27:41.866Z,51.00
2018-04-27T20:30:10.089Z,50.90
2018-04-27T20:32:36.548Z,51.20
2018-04-27T20:35:05.039Z,51.30
2018-04-27T20:37:33.201Z,51.00
2018-04-27T20:39:59.621Z,51.00
2018-04-27T20:42:26.298Z,50.90
2018-04-27T20:44:52.684Z,51.50
2018-04-27T20:47:18.895Z,51.80
2018-04-27T20:49:46.012Z,52.90
2018-04-27T20:52:12.923Z,52.90
2018-04-27T20:54:40.064Z,53.80
2018-04-27T20:57:07.770Z,53.60
2018-04-27T20:59:46.312Z,55.20
2018-04-27T21:02:16.717Z,56.10
2018-04-27T21:04:53.368Z,56.10
2018-04-27T21:07:20.933Z,55.70
2018-04-27T21:15:43.318Z,56.00
2018-04-27T21:18:10.973Z,56.10
2018-04-27T21:20:37.147Z,56.60
2018-04-27T21:23:04.039Z,56.40
2018-04-27T21:25:30.979Z,56.30
2018-04-27T21:27:59.214Z,56.60
2018-04-27T21:30:26.102Z,57.50
2018-04-27T21:32:57.951Z,57.40
2018-04-27T22:21:37.037Z,59.40
2018-04-27T22:24:03.160Z,60.30
2018-04-27T22:26:29.338Z,61.10
2018-04-27T22:28:57.277Z,61.60
2018-04-27T22:31:23.417Z,61.90
2018-04-27T22:33:52.688Z,63.00
2018-04-27T22:36:40.758Z,63.10
2018-04-27T22:39:18.367Z,63.20
2018-04-27T22:41:52.389Z,63.20
2018-04-27T22:44:18.521Z,63.20
2018-04-27T22:46:44.643Z,63.90
2018-04-27T22:49:14.490Z,64.80
2018-04-27T22:51:41.550Z,64.20
2018-04-27T23:08:16.618Z,64.50
2018-04-27T23:10:50.948Z,64.60
2018-04-27T23:13:19.549Z,64.60
2018-04-27T23:15:45.662Z,64.50
2018-04-27T23:18:15.694Z,64.00
2018-04-27T23:20:44.605Z,64.00
2018-04-27T23:23:11.538Z,63.90
2018-04-27T23:25:37.655Z,63.60
2018-04-27T23:28:03.779Z,64.10
2018-04-27T23:30:30.823Z,64.30
2018-04-27T23:32:56.962Z,64.20
2018-04-27T23:35:23.122Z,64.70
2018-04-27T23:37:49.242Z,64.80
2018-04-27T23:40:15.381Z,64.90
2018-04-27T23:42:41.544Z,64.50
2018-04-27T23:45:08.441Z,64.70
2018-04-27T23:47:34.562Z,64.50
2018-04-27T23:50:00.691Z,64.50
2018-04-27T23:52:26.822Z,64.80
2018-04-27T23:54:52.929Z,65.30
2018-04-27T23:57:19.875Z,65.10
2018-04-27T23:59:45.993Z,65.20
